METAR Data
IDs: Format: Raw Decoded Include TAF

Data at: 1321 UTC 26 Feb 2021

METAR for:KVTP (La Veta Mtn, CO, US)
Text:KVTP 261315Z AUTO 25013G24KT 10SM CLR M08/M13 A2975 RMK AO2
Temperature: -8.0°C ( 18°F)
Dewpoint:-13.0°C ( 9°F) [RH = 67%]
Pressure (altimeter):29.75 inches Hg (1007.5 mb)
Winds:from the WSW (250 degrees) at 15 MPH (13 knots; 6.7 m/s) gusting to 28 MPH (24 knots; 12.3 m/s)
Visibility:10 or more sm (16+ km)
Ceiling:at least 12,000 feet AGL
Clouds:sky clear below 12,000 feet AGL
QC Flag:automated observation with no human augmentation